Time;durP1;ratioP1;P1;durP2;ratioP2;P2;SDS_P1;SDS_P2;PMS_P1;PMS_P2;Temp;Humidity;BMP_temperature;BMP_pressure;BME280_temperature;BME280_humidity;BME280_pressure;Samples;Min_cycle;Max_cycle;Signal;HPM_P1;HPM_P2
2021/01/07 00:00:49;;;;;;;4.93;3.28;;;;;;;22.70;39.49;94585.13;5031436;28;20032;-77
2021/01/07 00:03:14;;;;;;;5.50;3.45;;;;;;;22.44;39.63;94525.09;5033792;28;20079;-77
2021/01/07 00:05:40;;;;;;;5.15;3.25;;;;;;;22.52;39.34;94532.16;5034433;28;20025;-77
2021/01/07 00:08:06;;;;;;;5.32;3.50;;;;;;;22.81;39.54;94579.50;5034160;28;20513;-76
2021/01/07 00:10:31;;;;;;;6.20;4.05;;;;;;;22.81;39.56;94583.00;5033397;28;20017;-77
2021/01/07 00:12:59;;;;;;;6.00;3.72;;;;;;;22.48;39.86;94545.31;5033070;28;20029;-77
2021/01/07 00:15:24;;;;;;;5.25;3.50;;;;;;;22.74;39.83;94585.56;5033391;28;20108;-77
2021/01/07 00:17:50;;;;;;;5.18;3.35;;;;;;;22.74;39.69;94586.28;5034064;28;20045;-77
2021/01/07 00:20:15;;;;;;;5.00;3.80;;;;;;;22.29;39.80;94535.69;5026502;28;20030;-76
2021/01/07 00:22:41;;;;;;;6.68;3.72;;;;;;;22.65;39.51;94588.66;5016188;28;20029;-76
2021/01/07 00:25:07;;;;;;;5.00;3.38;;;;;;;22.21;39.79;94513.03;5016333;28;20026;-76
2021/01/07 00:27:33;;;;;;;5.80;3.47;;;;;;;22.00;39.74;94487.56;5017720;28;20030;-75
2021/01/07 00:29:59;;;;;;;5.20;3.60;;;;;;;22.65;39.85;94577.75;5015584;28;20026;-76
2021/01/07 00:32:24;;;;;;;5.40;3.55;;;;;;;22.64;39.93;94581.72;5014566;28;20014;-77
2021/01/07 00:34:50;;;;;;;5.25;3.63;;;;;;;22.62;40.00;94589.69;5013502;28;20060;-76
2021/01/07 00:37:15;;;;;;;5.82;3.80;;;;;;;22.03;39.92;94502.84;5013611;28;20518;-77
2021/01/07 00:39:41;;;;;;;5.93;3.40;;;;;;;22.29;39.91;94546.56;5013124;28;20017;-77
2021/01/07 00:42:07;;;;;;;4.90;3.60;;;;;;;22.16;40.03;94521.94;5014356;28;20029;-76
2021/01/07 00:44:32;;;;;;;5.18;3.83;;;;;;;22.32;39.82;94561.13;5013331;28;20022;-78
2021/01/07 00:46:58;;;;;;;5.75;3.83;;;;;;;22.02;40.05;94501.38;5011610;28;20029;-77
2021/01/07 00:49:23;;;;;;;5.65;3.58;;;;;;;22.20;39.63;94516.97;5011997;28;20022;-77
2021/01/07 00:51:49;;;;;;;5.22;3.70;;;;;;;22.06;40.21;94518.13;5012753;28;20029;-78
2021/01/07 00:54:15;;;;;;;5.35;3.90;;;;;;;22.50;40.07;94572.03;5020046;28;20034;-78
2021/01/07 00:56:40;;;;;;;5.93;3.97;;;;;;;22.47;40.21;94583.94;5013090;28;20076;-77
2021/01/07 00:59:06;;;;;;;5.38;3.80;;;;;;;21.73;40.12;94468.09;5013503;28;20025;-77
2021/01/07 01:01:45;;;;;;;5.63;3.90;;;;;;;21.90;40.18;94493.09;5013643;28;20076;-77
2021/01/07 01:04:12;;;;;;;6.22;3.65;;;;;;;22.00;40.28;94501.16;5011654;28;20477;-77
2021/01/07 01:06:37;;;;;;;5.18;3.63;;;;;;;22.43;40.41;94567.16;5012647;28;20068;-77
2021/01/07 01:09:04;;;;;;;4.90;3.40;;;;;;;22.42;40.10;94571.13;5013007;28;20029;-76
2021/01/07 01:11:30;;;;;;;5.70;3.90;;;;;;;22.42;40.08;94568.41;5012221;28;20477;-77
2021/01/07 01:13:56;;;;;;;6.10;3.95;;;;;;;22.23;40.32;94554.03;5011367;28;20022;-77
2021/01/07 01:16:26;;;;;;;5.38;3.90;;;;;;;22.38;40.47;94543.47;5011075;28;20435;-76
2021/01/07 01:18:51;;;;;;;;;;;;;;;22.37;40.20;94558.31;5013293;28;20063;-76
2021/01/07 01:21:17;;;;;;;6.18;4.22;;;;;;;22.36;40.37;94548.72;5044279;28;20390;-76
2021/01/07 01:23:42;;;;;;;6.20;4.30;;;;;;;22.04;40.12;94509.72;5012254;28;20034;-76
2021/01/07 01:26:08;;;;;;;5.70;3.90;;;;;;;22.33;40.22;94555.19;5010997;28;20026;-76
2021/01/07 01:28:33;;;;;;;5.30;3.90;;;;;;;22.33;40.53;94557.91;5012209;28;20034;-76
2021/01/07 01:30:59;;;;;;;6.43;4.15;;;;;;;22.11;40.55;94509.16;5012657;28;20018;-76
2021/01/07 01:33:24;;;;;;;5.13;3.75;;;;;;;22.22;40.37;94535.53;5012953;28;20029;-77
2021/01/07 01:35:50;;;;;;;5.03;3.50;;;;;;;22.30;40.18;94542.59;5012404;28;20450;-76
2021/01/07 01:38:15;;;;;;;4.72;3.50;;;;;;;21.54;40.36;94423.88;5012406;28;20080;-77
2021/01/07 01:40:41;;;;;;;5.57;3.95;;;;;;;22.20;40.61;94516.97;4995523;28;20538;-77
2021/01/07 01:43:07;;;;;;;5.05;3.63;;;;;;;22.05;40.47;94484.03;5012307;28;20470;-76
2021/01/07 01:45:33;;;;;;;5.68;3.88;;;;;;;22.25;40.30;94523.63;5014203;28;20033;-76
2021/01/07 01:47:58;;;;;;;6.45;4.30;;;;;;;22.25;40.52;94505.31;5012247;28;20021;-76
2021/01/07 01:50:24;;;;;;;5.80;4.13;;;;;;;22.25;40.46;94513.47;5009995;28;20030;-77
2021/01/07 01:52:49;;;;;;;4.93;3.60;;;;;;;22.02;40.72;94452.44;5011038;28;20072;-76
2021/01/07 01:55:15;;;;;;;5.72;3.88;;;;;;;22.22;40.52;94487.28;5011168;28;20026;-77
2021/01/07 01:57:40;;;;;;;5.90;4.10;;;;;;;21.48;40.26;94390.59;5012113;28;20103;-76
2021/01/07 02:00:07;;;;;;;5.15;4.00;;;;;;;22.20;40.50;94478.91;5011217;28;20029;-77
2021/01/07 02:02:32;;;;;;;5.75;3.88;;;;;;;21.77;40.49;94425.06;5011227;28;20025;-77
2021/01/07 02:04:58;;;;;;;5.80;4.00;;;;;;;22.19;40.78;94471.97;5011664;28;20037;-77
2021/01/07 02:07:25;;;;;;;5.80;3.88;;;;;;;22.01;40.77;94440.06;5011345;28;20026;-76
2021/01/07 02:09:50;;;;;;;5.93;3.97;;;;;;;21.84;40.61;94424.47;4994414;28;20171;-76
2021/01/07 02:12:16;;;;;;;5.57;4.18;;;;;;;21.77;40.50;94395.19;5026946;28;20030;-76
2021/01/07 02:14:45;;;;;;;5.10;3.65;;;;;;;21.59;40.63;94376.88;5011319;28;20100;-78
2021/01/07 02:17:11;;;;;;;5.20;3.78;;;;;;;22.13;40.63;94452.28;5010726;28;20050;-78
2021/01/07 02:19:37;;;;;;;5.55;3.70;;;;;;;22.12;40.84;94458.97;5026626;28;20046;-76
2021/01/07 02:22:02;;;;;;;5.63;4.00;;;;;;;22.13;40.94;94451.56;5010861;28;20030;-76
2021/01/07 02:24:28;;;;;;;5.10;3.53;;;;;;;22.12;40.79;94423.63;5011044;28;20545;-76
2021/01/07 02:26:54;;;;;;;5.80;3.88;;;;;;;22.11;40.59;94416.72;5010056;28;20029;-76
2021/01/07 02:29:31;;;;;;;5.43;4.00;;;;;;;22.10;40.76;94420.69;5026423;28;20063;-75
2021/01/07 02:31:57;;;;;;;4.70;3.45;;;;;;;22.10;40.95;94439.72;5011490;28;20038;-76
2021/01/07 02:34:22;;;;;;;5.53;3.65;;;;;;;21.58;40.86;94359.84;5010058;28;20482;-76
2021/01/07 02:36:48;;;;;;;5.63;3.88;;;;;;;21.92;40.89;94398.22;5011860;28;20025;-76
2021/01/07 02:39:13;;;;;;;5.45;3.80;;;;;;;;;;5010459;28;20032;-75
2021/01/07 02:41:39;;;;;;;5.88;4.05;;;;;;;22.01;40.74;94439.34;5010961;28;20037;-77
2021/01/07 02:44:04;;;;;;;5.85;3.95;;;;;;;22.05;40.85;94416.06;5026284;28;20068;-76
2021/01/07 02:46:30;;;;;;;5.93;3.75;;;;;;;21.80;40.87;94407.75;5010220;28;20053;-76
2021/01/07 02:48:55;;;;;;;6.70;4.22;;;;;;;22.01;40.90;94433.91;5026583;28;20038;-76
2021/01/07 02:51:21;;;;;;;5.10;3.63;;;;;;;22.02;40.72;94430.69;5011071;28;20506;-76
2021/01/07 02:53:46;;;;;;;5.13;3.83;;;;;;;22.02;40.90;94441.56;5026381;28;20033;-77
2021/01/07 02:56:12;;;;;;;6.22;4.72;;;;;;;21.68;40.87;94376.53;5010579;28;20126;-77
2021/01/07 02:58:37;;;;;;;5.10;3.65;;;;;;;22.01;40.93;94420.31;5009610;28;20025;-76
2021/01/07 03:01:03;;;;;;;5.57;3.90;;;;;;;21.52;40.95;94344.84;5010689;28;20041;-76
2021/01/07 03:03:28;;;;;;;5.05;3.67;;;;;;;21.35;41.05;94330.72;5010680;28;20018;-77
2021/01/07 03:05:54;;;;;;;5.68;4.05;;;;;;;21.03;40.70;94278.28;5009619;28;20545;-76
2021/01/07 03:08:19;;;;;;;5.88;3.70;;;;;;;21.99;41.08;94431.69;5011134;28;20473;-77
2021/01/07 03:10:45;;;;;;;5.55;3.80;;;;;;;21.78;41.13;94405.53;5026778;28;20534;-77
2021/01/07 03:13:10;;;;;;;5.40;3.70;;;;;;;21.34;40.80;94356.41;5010819;28;20113;-76
2021/01/07 03:15:36;;;;;;;5.68;3.78;;;;;;;21.67;40.71;94413.09;5025742;28;20041;-76
2021/01/07 03:18:01;;;;;;;5.47;3.53;;;;;;;21.96;41.25;94468.06;5010871;28;20427;-76
2021/01/07 03:20:27;;;;;;;5.47;4.05;;;;;;;21.83;40.94;94423.75;5010779;28;20065;-76
2021/01/07 03:22:52;;;;;;;5.30;3.55;;;;;;;21.94;40.94;94461.66;5010101;28;20034;-76
2021/01/07 03:25:18;;;;;;;5.07;3.85;;;;;;;21.36;41.09;94367.50;5025725;28;20025;-76
2021/01/07 03:27:44;;;;;;;5.45;3.80;;;;;;;21.94;41.18;94440.66;5010144;28;20084;-76
2021/01/07 03:30:10;;;;;;;4.90;3.42;;;;;;;21.93;41.17;94439.19;5010760;28;20037;-76
2021/01/07 03:32:35;;;;;;;5.32;3.88;;;;;;;21.71;41.09;94400.69;5010735;28;20458;-76
2021/01/07 03:35:04;;;;;;;5.00;3.55;;;;;;;21.92;41.18;94426.13;5025841;28;20022;-77
2021/01/07 03:37:30;;;;;;;5.30;4.05;;;;;;;21.57;41.17;94373.94;5013300;28;20033;-77
2021/01/07 03:39:56;;;;;;;5.38;3.78;;;;;;;21.92;41.18;94425.38;5014184;28;20503;-76
2021/01/07 03:42:21;;;;;;;6.00;3.60;;;;;;;21.91;41.17;94423.91;5013857;28;20045;-76
2021/01/07 03:44:47;;;;;;;5.55;4.10;;;;;;;21.38;40.91;94340.56;5013369;28;20049;-77
2021/01/07 03:47:13;;;;;;;4.90;3.60;;;;;;;21.51;41.22;94349.56;5029019;28;20049;-77
2021/01/07 03:49:38;;;;;;;4.55;3.45;;;;;;;21.92;41.37;94417.22;5013436;28;20495;-77
2021/01/07 03:52:04;;;;;;;4.38;3.40;;;;;;;21.68;41.04;94362.94;5014766;28;20442;-77
2021/01/07 03:54:29;;;;;;;5.03;3.78;;;;;;;21.25;40.96;94294.28;5014711;28;20030;-77
2021/01/07 03:56:55;;;;;;;4.78;3.22;;;;;;;22.03;40.98;94407.69;5014532;28;20032;-77
2021/01/07 03:59:21;;;;;;;5.45;3.42;;;;;;;22.08;41.21;94406.88;5014586;28;20084;-77
2021/01/07 04:01:46;;;;;;;4.68;3.50;;;;;;;21.75;40.78;94329.72;5012714;28;20022;-76
2021/01/07 04:04:12;;;;;;;4.45;3.15;;;;;;;22.15;40.79;94389.97;5012622;28;20044;-77
2021/01/07 04:06:37;;;;;;;4.53;3.03;;;;;;;22.21;40.72;94398.81;5014258;28;20030;-77
2021/01/07 04:09:04;;;;;;;5.30;3.60;;;;;;;22.02;41.19;94343.69;5029842;28;20509;-77
2021/01/07 04:11:29;;;;;;;4.55;3.10;;;;;;;22.27;40.34;94385.13;5014144;28;20033;-77
2021/01/07 04:13:56;;;;;;;4.90;3.50;;;;;;;22.31;40.83;94399.88;5029232;28;20030;-77
2021/01/07 04:16:21;;;;;;;4.57;3.10;;;;;;;22.28;40.51;94381.88;5028857;28;20104;-77
2021/01/07 04:18:47;;;;;;;4.35;3.28;;;;;;;22.38;40.44;94399.31;5013297;28;20457;-78
2021/01/07 04:21:12;;;;;;;4.75;3.15;;;;;;;22.09;40.65;94353.97;5029039;28;20030;-77
2021/01/07 04:23:38;;;;;;;4.68;3.42;;;;;;;22.39;40.35;94414.38;5012930;28;20041;-77
2021/01/07 04:26:03;;;;;;;4.22;3.28;;;;;;;22.15;40.42;94379.09;5013468;28;20033;-77
2021/01/07 04:28:29;;;;;;;3.90;2.95;;;;;;;22.39;40.40;94413.63;5012597;28;20037;-77
2021/01/07 04:30:55;;;;;;;4.70;3.10;;;;;;;22.49;40.42;94439.94;5014105;28;20110;-78
2021/01/07 04:33:20;;;;;;;4.10;2.90;;;;;;;22.41;40.44;94428.91;5014193;28;20056;-77
2021/01/07 04:35:46;;;;;;;4.72;3.00;;;;;;;22.13;40.51;94376.13;5014426;28;20034;-78
2021/01/07 04:38:11;;;;;;;4.20;2.80;;;;;;;22.17;40.15;94387.47;5013761;28;20022;-78
2021/01/07 04:40:37;;;;;;;4.43;2.83;;;;;;;22.57;40.39;94427.19;5013926;28;20454;-77
2021/01/07 04:43:02;;;;;;;5.40;3.20;;;;;;;22.32;40.15;94376.16;5013934;28;20422;-78
2021/01/07 04:45:28;;;;;;;3.95;2.63;;;;;;;22.61;40.42;94411.31;5012561;28;20034;-79
2021/01/07 04:47:54;;;;;;;4.00;2.90;;;;;;;22.63;40.01;94425.13;5014012;28;20495;-78
2021/01/07 04:50:19;;;;;;;4.75;2.85;;;;;;;22.46;40.16;94397.44;5012574;28;20399;-77
2021/01/07 04:52:45;;;;;;;4.35;3.47;;;;;;;22.47;40.29;94396.19;5013286;28;20069;-77
2021/01/07 04:55:11;;;;;;;3.92;2.83;;;;;;;22.69;39.95;94404.00;4995709;28;20018;-77
2021/01/07 04:57:36;;;;;;;4.45;2.65;;;;;;;22.70;39.93;94421.81;5013410;28;20109;-77
2021/01/07 05:00:06;;;;;;;4.60;2.85;;;;;;;22.47;40.16;94377.16;5013989;28;20030;-77
2021/01/07 05:02:32;;;;;;;5.13;2.95;;;;;;;22.73;40.06;94426.22;5011973;28;20487;-77
2021/01/07 05:04:57;;;;;;;4.13;2.83;;;;;;;22.33;40.05;94362.03;5012217;28;20034;-77
2021/01/07 05:07:23;;;;;;;3.92;2.45;;;;;;;22.76;40.21;94420.47;5012016;28;20030;-78
2021/01/07 05:09:59;;;;;;;3.50;2.45;;;;;;;22.70;40.04;94427.25;5013721;28;20037;-77
2021/01/07 05:12:24;;;;;;;4.90;2.85;;;;;;;22.77;39.86;94434.81;5013636;28;20502;-78
2021/01/07 05:14:50;;;;;;;4.70;2.70;;;;;;;22.58;39.75;94398.75;5033248;28;20030;-77
2021/01/07 05:17:16;;;;;;;4.30;2.40;;;;;;;22.34;39.89;94351.88;5031332;28;20049;-77
2021/01/07 05:19:41;;;;;;;3.35;2.45;;;;;;;22.50;39.91;94392.44;5031617;28;20018;-77
2021/01/07 05:22:07;;;;;;;4.10;2.70;;;;;;;22.82;39.99;94429.28;5031427;28;20032;-77
2021/01/07 05:24:33;;;;;;;4.20;2.85;;;;;;;22.85;39.90;94446.56;5030204;28;20026;-77
2021/01/07 05:27:12;;;;;;;4.38;3.05;;;;;;;22.75;40.05;94429.16;5013277;28;20021;-76
2021/01/07 05:29:38;;;;;;;3.40;2.40;;;;;;;22.37;39.68;94373.34;5013388;28;20507;-77
2021/01/07 05:32:04;;;;;;;3.72;2.70;;;;;;;22.81;39.63;94437.97;5028342;28;20021;-77
2021/01/07 05:34:30;;;;;;;4.07;2.50;;;;;;;22.87;39.66;94447.53;5011388;28;20037;-78
2021/01/07 05:36:59;;;;;;;3.53;2.42;;;;;;;22.88;39.76;94449.72;5018195;28;20036;-77
2021/01/07 05:39:32;;;;;;;3.53;2.33;;;;;;;22.89;39.61;94451.19;5032394;28;20021;-77
2021/01/07 05:41:57;;;;;;;4.25;2.60;;;;;;;22.90;39.75;94452.66;5031845;28;20026;-78
2021/01/07 05:44:23;;;;;;;3.67;2.40;;;;;;;22.74;39.91;94416.81;5014981;28;20091;-77
2021/01/07 05:46:48;;;;;;;4.57;2.70;;;;;;;22.46;39.44;94386.56;5033158;28;20053;-77
2021/01/07 05:49:18;;;;;;;4.15;2.63;;;;;;;22.90;39.74;94439.03;5031607;28;20075;-77
2021/01/07 05:51:45;;;;;;;3.20;2.42;;;;;;;22.86;39.46;94445.31;5031431;28;20017;-76
2021/01/07 05:54:10;;;;;;;3.55;2.33;;;;;;;22.49;39.48;94388.25;5032124;28;20072;-76
2021/01/07 05:56:36;;;;;;;4.25;2.33;;;;;;;22.90;39.78;94446.50;5013742;28;20025;-76
2021/01/07 05:59:01;;;;;;;3.55;2.40;;;;;;;22.94;39.44;94447.69;5045886;28;20029;-76
2021/01/07 06:01:27;;;;;;;3.20;2.60;;;;;;;22.95;39.43;94445.69;5031868;28;20029;-77
2021/01/07 06:03:53;;;;;;;3.58;2.50;;;;;;;22.91;39.27;94443.25;5013849;28;20120;-77
2021/01/07 06:06:22;;;;;;;3.45;2.97;;;;;;;22.61;39.33;94392.97;5031824;28;20108;-76
2021/01/07 06:08:49;;;;;;;3.90;2.38;;;;;;;22.98;39.70;94448.09;5030656;28;20053;-77
2021/01/07 06:11:16;;;;;;;3.50;2.33;;;;;;;22.78;39.64;94428.88;5028388;28;20417;-76
2021/01/07 06:13:43;;;;;;;3.05;2.20;;;;;;;22.81;39.71;94410.72;5011914;28;20030;-77
2021/01/07 06:16:16;;;;;;;3.10;2.28;;;;;;;22.93;39.71;94443.47;5010203;28;20052;-76
2021/01/07 06:18:42;;;;;;;2.40;2.20;;;;;;;22.99;39.33;94427.78;5011752;28;20036;-76
2021/01/07 06:21:11;;;;;;;2.90;2.10;;;;;;;23.00;39.65;94444.84;5028829;28;20422;-76
2021/01/07 06:23:49;;;;;;;2.67;1.92;;;;;;;22.70;39.17;94402.75;5031916;28;20056;-76
2021/01/07 06:26:22;;;;;;;3.15;2.10;;;;;;;23.04;39.66;94437.84;5022299;28;20080;-75
2021/01/07 06:29:00;;;;;;;3.15;2.20;;;;;;;23.07;39.69;94466.03;5025072;28;20725;-74
2021/01/07 06:31:31;;;;;;;3.10;2.10;;;;;;;23.09;39.50;94464.28;4989166;28;20091;-79
2021/01/07 06:33:57;;;;;;;2.60;1.98;;;;;;;23.10;39.65;94465.72;5011380;28;20459;-79
2021/01/07 06:36:41;;;;;;;5.35;1.80;;;;;;;-140.79;100.00;63287.88;5012556;28;20029;-76
2021/01/07 06:39:07;;;;;;;2.70;1.75;;;;;;;-140.79;100.00;63287.88;5016637;28;20041;-76
2021/01/07 06:41:33;;;;;;;2.97;1.70;;;;;;;-140.79;100.00;63287.88;5021240;28;20067;-72
2021/01/07 06:43:58;;;;;;;2.60;1.58;;;;;;;-140.79;100.00;63287.88;5028949;28;20486;-76
2021/01/07 06:46:43;;;;;;;2.53;1.80;;;;;;;-140.79;100.00;63287.88;5025452;28;20022;-74
2021/01/07 06:49:30;;;;;;;2.85;1.95;;;;;;;-140.79;100.00;63287.88;5017497;28;20053;-71
2021/01/07 06:52:05;;;;;;;2.63;1.80;;;;;;;-140.79;100.00;63287.88;5018619;28;20029;-76
2021/01/07 06:54:32;;;;;;;2.15;1.40;;;;;;;-140.79;100.00;63287.88;5020582;28;20423;-73
2021/01/07 06:56:57;;;;;;;1.98;1.48;;;;;;;-140.79;100.00;63287.88;5031045;28;20032;-72
2021/01/07 06:59:23;;;;;;;2.22;1.70;;;;;;;-140.79;100.00;63287.88;5024660;28;20029;-75
2021/01/07 07:01:53;;;;;;;2.63;1.80;;;;;;;-140.79;100.00;63287.88;5028473;28;20022;-73
2021/01/07 07:04:32;;;;;;;3.50;1.98;;;;;;;-140.79;100.00;63287.88;5026810;28;20075;-74
2021/01/07 07:07:02;;;;;;;2.42;1.42;;;;;;;-140.79;100.00;63287.88;5014858;28;20029;-73
2021/01/07 07:09:36;;;;;;;3.22;1.70;;;;;;;-140.79;100.00;63287.88;5022108;28;20037;-74
2021/01/07 07:12:01;;;;;;;2.30;1.40;;;;;;;-140.79;100.00;63287.88;5025646;28;20033;-74
2021/01/07 07:14:27;;;;;;;2.78;1.90;;;;;;;-140.79;100.00;63287.88;5026102;28;20048;-73
2021/01/07 07:16:52;;;;;;;2.58;1.75;;;;;;;-140.79;100.00;63287.88;5031485;28;20037;-74
2021/01/07 07:19:27;;;;;;;1.95;1.50;;;;;;;-140.79;100.00;63287.88;5042911;28;20044;-71
2021/01/07 07:22:00;;;;;;;3.65;1.85;;;;;;;-140.79;100.00;63287.88;5026837;28;20560;-72
2021/01/07 07:24:38;;;;;;;2.22;1.50;;;;;;;-140.79;100.00;63287.88;5024803;28;20124;-74
2021/01/07 07:27:09;;;;;;;2.22;1.55;;;;;;;-140.79;100.00;63287.88;5027568;28;20025;-73
2021/01/07 07:29:36;;;;;;;2.00;1.40;;;;;;;-140.79;100.00;63287.88;5030966;28;20892;-72
2021/01/07 07:32:02;;;;;;;2.88;1.50;;;;;;;-140.79;100.00;63287.88;5028498;28;20021;-73
2021/01/07 07:34:31;;;;;;;2.35;1.50;;;;;;;-140.79;100.00;63287.88;5031236;28;20044;-73
2021/01/07 07:36:58;;;;;;;2.15;1.60;;;;;;;-140.79;100.00;63287.88;5025761;28;20392;-73
2021/01/07 07:39:27;;;;;;;1.60;1.20;;;;;;;-140.79;100.00;63287.88;5022975;28;20029;-72
2021/01/07 07:42:11;;;;;;;2.35;1.40;;;;;;;-140.79;100.00;63287.88;5015918;28;20033;-72
2021/01/07 07:44:37;;;;;;;2.58;1.90;;;;;;;-140.79;100.00;63287.88;5022565;28;20033;-72
2021/01/07 07:47:03;;;;;;;2.33;1.25;;;;;;;-140.79;100.00;63287.88;5017104;28;20022;-74
2021/01/07 07:49:28;;;;;;;2.10;1.40;;;;;;;-140.79;100.00;63287.88;5024515;28;20080;-73
2021/01/07 07:51:54;;;;;;;2.88;1.80;;;;;;;-140.79;100.00;63287.88;5026659;28;20021;-73
2021/01/07 07:54:19;;;;;;;2.65;1.50;;;;;;;-140.79;100.00;63287.88;5032268;28;20399;-76
2021/01/07 07:56:48;;;;;;;2.15;1.45;;;;;;;-140.79;100.00;63287.88;5031672;28;20510;-76
2021/01/07 07:59:13;;;;;;;2.17;1.45;;;;;;;-140.79;100.00;63287.88;5060177;28;20021;-75
2021/01/07 08:01:48;;;;;;;2.35;1.35;;;;;;;-140.79;100.00;63287.88;5048671;28;20059;-74
2021/01/07 08:04:15;;;;;;;3.72;1.75;;;;;;;-140.79;100.00;63287.88;5059031;28;20014;-73
2021/01/07 08:06:40;;;;;;;3.08;1.70;;;;;;;-140.79;100.00;63287.88;5050275;28;20030;-82
2021/01/07 08:09:07;;;;;;;2.35;1.60;;;;;;;-140.79;100.00;63287.88;5041151;28;20036;-78
2021/01/07 08:11:49;;;;;;;2.67;1.40;;;;;;;-140.79;100.00;63287.88;5030191;28;20020;-79
2021/01/07 08:14:17;;;;;;;1.98;1.33;;;;;;;-140.79;100.00;63287.88;5037102;28;20510;-83
2021/01/07 08:16:42;;;;;;;2.08;1.40;;;;;;;-140.79;100.00;63287.88;5041627;28;20041;-83
2021/01/07 08:19:31;;;;;;;2.42;1.35;;;;;;;-140.79;100.00;63287.88;5022992;28;20049;-79
2021/01/07 08:21:57;;;;;;;3.65;1.85;;;;;;;-140.79;100.00;63287.88;5036416;28;20049;-79
2021/01/07 08:24:24;;;;;;;3.25;1.73;;;;;;;-140.79;100.00;63287.88;5025887;28;20060;-76
2021/01/07 08:27:10;;;;;;;2.05;1.30;;;;;;;-140.79;100.00;63287.88;5041859;28;20568;-76
2021/01/07 08:29:46;;;;;;;2.50;1.40;;;;;;;-140.79;100.00;63287.88;5021269;28;20025;-78
2021/01/07 08:32:14;;;;;;;1.88;1.23;;;;;;;-140.79;100.00;63287.88;5020884;28;20489;-78
2021/01/07 08:34:39;;;;;;;2.22;1.40;;;;;;;-140.79;100.00;63287.88;5027741;28;20116;-77
2021/01/07 08:37:17;;;;;;;2.28;1.30;;;;;;;-140.79;100.00;63287.88;5016459;28;20036;-77
2021/01/07 08:39:42;;;;;;;2.22;1.33;;;;;;;-140.79;100.00;63287.88;5032006;28;20036;-73
2021/01/07 08:42:16;;;;;;;2.58;1.45;;;;;;;-140.79;100.00;63287.88;5024687;28;20034;-73
2021/01/07 08:44:42;;;;;;;2.33;1.38;;;;;;;-140.79;100.00;63287.88;5021718;28;20060;-73
2021/01/07 08:47:22;;;;;;;1.55;1.02;;;;;;;-140.79;100.00;63287.88;5025352;28;20033;-71
2021/01/07 08:50:06;;;;;;;1.73;1.40;;;;;;;-140.79;100.00;63287.88;5015481;28;20078;-72
2021/01/07 08:52:50;;;;;;;2.40;1.25;;;;;;;-140.79;100.00;63287.88;5020273;28;20512;-72
2021/01/07 08:55:16;;;;;;;2.70;1.10;;;;;;;-140.79;100.00;63287.88;5011514;28;20079;-73
2021/01/07 08:57:42;;;;;;;1.80;1.10;;;;;;;-140.79;100.00;63287.88;5025812;28;20025;-71
2021/01/07 09:00:14;;;;;;;1.80;1.10;;;;;;;-140.79;100.00;63287.88;5010412;28;20047;-71
2021/01/07 09:02:40;;;;;;;1.90;1.25;;;;;;;-140.79;100.00;63287.88;5027305;28;20036;-73
2021/01/07 09:05:06;;;;;;;1.25;0.82;;;;;;;-140.79;100.00;63287.88;5012580;28;20222;-73
2021/01/07 09:07:32;;;;;;;1.88;1.10;;;;;;;-140.79;100.00;63287.88;5015516;28;20041;-74
2021/01/07 09:09:57;;;;;;;1.80;1.08;;;;;;;-140.79;100.00;63287.88;5027017;28;20029;-72
2021/01/07 09:12:29;;;;;;;2.45;1.15;;;;;;;-140.79;100.00;63287.88;5025917;28;20022;-73
2021/01/07 09:15:09;;;;;;;2.10;1.20;;;;;;;-140.79;100.00;63287.88;5023622;28;20063;-72
2021/01/07 09:17:38;;;;;;;;;;;;;;;-140.79;100.00;63287.88;5029135;28;20049;-71
2021/01/07 09:20:08;;;;;;;1.50;1.00;;;;;;;-140.79;100.00;63287.88;5024638;28;19959;-72
2021/01/07 09:22:34;;;;;;;1.65;1.20;;;;;;;-140.79;100.00;63287.88;5019366;28;20022;-73
2021/01/07 09:25:00;;;;;;;2.05;1.13;;;;;;;-140.79;100.00;63287.88;5022183;28;20117;-73
2021/01/07 09:27:26;;;;;;;1.17;0.82;;;;;;;-140.79;100.00;63287.88;5022195;28;20029;-73
2021/01/07 09:29:51;;;;;;;2.30;1.17;;;;;;;-140.79;100.00;63287.88;5020105;28;20406;-75
2021/01/07 09:32:17;;;;;;;1.75;1.00;;;;;;;-140.79;100.00;63287.88;5024413;28;20025;-72
2021/01/07 09:34:43;;;;;;;5.85;1.35;;;;;;;-140.79;100.00;63287.88;5015745;28;20045;-67
2021/01/07 09:37:15;;;;;;;2.22;1.02;;;;;;;-140.79;100.00;63287.88;5023348;28;20048;-76
2021/01/07 09:39:41;;;;;;;1.92;0.98;;;;;;;-140.79;100.00;63287.88;5023269;28;20029;-70
2021/01/07 09:42:07;;;;;;;5.32;0.90;;;;;;;-140.79;100.00;63287.88;5030736;28;20034;-69
2021/01/07 09:44:33;;;;;;;3.15;0.90;;;;;;;-140.79;100.00;63287.88;5019367;28;20045;-71
2021/01/07 09:46:59;;;;;;;2.30;1.05;;;;;;;-140.79;100.00;63287.88;5013322;28;20029;-74
2021/01/07 09:49:25;;;;;;;2.85;1.00;;;;;;;-140.79;100.00;63287.88;4999396;28;20025;-73
2021/01/07 09:51:51;;;;;;;2.30;1.00;;;;;;;-140.79;100.00;63287.88;5023803;28;20026;-77
2021/01/07 09:54:16;;;;;;;2.60;0.90;;;;;;;-140.79;100.00;63287.88;5029308;28;20037;-75
2021/01/07 09:56:42;;;;;;;3.15;0.90;;;;;;;-140.79;100.00;63287.88;5022531;28;20505;-75
2021/01/07 09:59:07;;;;;;;1.55;0.80;;;;;;;-140.79;100.00;63287.88;5038332;28;20029;-75
2021/01/07 10:01:33;;;;;;;2.28;1.00;;;;;;;-140.79;100.00;63287.88;5029431;28;20072;-74
2021/01/07 10:03:59;;;;;;;1.85;0.77;;;;;;;-140.79;100.00;63287.88;5026290;28;20036;-75
2021/01/07 10:06:24;;;;;;;2.65;0.80;;;;;;;-140.79;100.00;63287.88;5027295;28;20086;-72
2021/01/07 10:08:50;;;;;;;1.95;1.08;;;;;;;-140.79;100.00;63287.88;5013151;28;20034;-80
2021/01/07 10:11:16;;;;;;;2.65;0.90;;;;;;;-140.79;100.00;63287.88;5014090;28;20021;-80
2021/01/07 10:13:42;;;;;;;1.60;1.10;;;;;;;-140.79;100.00;63287.88;5035186;28;20021;-78
2021/01/07 10:16:14;;;;;;;2.33;1.20;;;;;;;-140.79;100.00;63287.88;5040124;28;20068;-81
2021/01/07 10:18:40;;;;;;;2.78;1.00;;;;;;;-140.79;100.00;63287.88;5035399;28;20029;-84
2021/01/07 10:21:08;;;;;;;2.20;0.90;;;;;;;-140.79;100.00;63287.88;5044397;28;20029;-81
2021/01/07 10:23:34;;;;;;;1.83;0.80;;;;;;;-140.79;100.00;63287.88;5033216;28;20044;-77
2021/01/07 10:26:00;;;;;;;1.90;1.00;;;;;;;-140.79;100.00;63287.88;5022656;28;20042;-78
2021/01/07 10:28:29;;;;;;;3.15;0.95;;;;;;;-140.79;100.00;63287.88;5029948;28;20035;-76
2021/01/07 10:30:54;;;;;;;3.72;1.20;;;;;;;-140.79;100.00;63287.88;5025097;28;20026;-76
2021/01/07 10:33:20;;;;;;;3.63;1.00;;;;;;;-140.79;100.00;63287.88;5022389;28;20120;-76
2021/01/07 10:35:46;;;;;;;1.77;1.00;;;;;;;-140.79;100.00;63287.88;5031695;28;20033;-72
2021/01/07 10:38:12;;;;;;;3.25;1.00;;;;;;;-140.79;100.00;63287.88;5017760;28;20532;-75
2021/01/07 10:40:43;;;;;;;2.17;0.95;;;;;;;-140.79;100.00;63287.88;5028065;28;20028;-75
2021/01/07 10:43:08;;;;;;;2.35;0.80;;;;;;;-140.79;100.00;63287.88;5012890;28;20503;-76
2021/01/07 10:45:34;;;;;;;2.17;1.17;;;;;;;-140.79;100.00;63287.88;5029726;28;20079;-75
2021/01/07 10:47:59;;;;;;;4.68;1.17;;;;;;;-140.79;100.00;63287.88;5028933;28;20017;-75
2021/01/07 10:50:27;;;;;;;1.70;0.88;;;;;;;-140.79;100.00;63287.88;5025410;28;20029;-75
2021/01/07 10:53:26;;;;;;;4.07;1.00;;;;;;;-140.79;100.00;63287.88;5008328;28;20105;-76
2021/01/07 10:56:01;;;;;;;2.17;1.23;;;;;;;-140.79;100.00;63287.88;5013496;28;20124;-77
2021/01/07 10:58:39;;;;;;;2.80;1.13;;;;;;;-140.79;100.00;63287.88;5017335;28;20025;-76
2021/01/07 11:01:28;;;;;;;2.95;1.10;;;;;;;-140.79;100.00;63287.88;5019625;28;20096;-76
2021/01/07 11:04:36;;;;;;;1.73;0.80;;;;;;;-140.79;100.00;63287.88;5029196;28;20072;-76
2021/01/07 11:07:14;;;;;;;2.05;0.90;;;;;;;-140.79;100.00;63287.88;5026686;28;20150;-77
2021/01/07 11:09:40;;;;;;;2.20;0.73;;;;;;;-140.79;100.00;63287.88;5007644;28;20033;-78
2021/01/07 11:12:08;;;;;;;3.22;0.93;;;;;;;-140.79;100.00;63287.88;5041191;28;20026;-77
2021/01/07 11:14:41;;;;;;;3.47;1.05;;;;;;;-140.79;100.00;63287.88;5025814;28;20029;-76
2021/01/07 11:17:11;;;;;;;1.75;0.90;;;;;;;-140.79;100.00;63287.88;5034176;28;20077;-79
2021/01/07 11:19:36;;;;;;;2.30;0.77;;;;;;;-140.79;100.00;63287.88;5001979;28;20503;-73
2021/01/07 11:22:12;;;;;;;1.27;0.82;;;;;;;-140.79;100.00;63287.88;5004566;28;20111;-77
2021/01/07 11:24:39;;;;;;;3.05;0.90;;;;;;;-140.79;100.00;63287.88;5031156;28;20018;-78
2021/01/07 11:27:04;;;;;;;2.08;0.70;;;;;;;-140.79;100.00;63287.88;5041935;28;20112;-76